createdAt,value
2019-04-28T00:00:07.802Z,73.60
2019-04-28T00:04:16.760Z,73.60
2019-04-28T00:08:26.502Z,73.50
2019-04-28T00:12:37.395Z,73.40
2019-04-28T00:16:46.359Z,73.50
2019-04-28T00:21:26.709Z,73.60
2019-04-28T00:25:41.077Z,73.50
2019-04-28T00:29:51.908Z,73.70
2019-04-28T00:34:01.571Z,73.40
2019-04-28T00:38:11.519Z,73.40
2019-04-28T00:42:22.636Z,73.50
2019-04-28T00:46:34.647Z,73.80
2019-04-28T00:50:43.801Z,73.50
2019-04-28T00:54:53.271Z,73.40
2019-04-28T00:59:02.392Z,73.70
2019-04-28T01:03:11.727Z,73.80
2019-04-28T01:07:21.304Z,73.90
2019-04-28T01:11:31.665Z,74.00
2019-04-28T01:15:59.751Z,73.90
2019-04-28T01:20:11.561Z,73.90
2019-04-28T01:24:20.375Z,74.10
2019-04-28T01:28:29.778Z,74.70
2019-04-28T01:32:44.986Z,73.60
2019-04-28T01:36:54.340Z,73.80
2019-04-28T01:41:03.236Z,73.90
2019-04-28T01:45:12.242Z,73.60
2019-04-28T01:49:21.151Z,73.80
2019-04-28T01:53:30.798Z,74.10
2019-04-28T01:57:40.249Z,74.00
2019-04-28T02:01:49.913Z,74.20
2019-04-28T02:06:00.156Z,74.00
2019-04-28T02:10:10.255Z,73.70
2019-04-28T02:14:19.612Z,73.50
2019-04-28T02:18:29.916Z,73.60
2019-04-28T02:22:49.637Z,73.60
2019-04-28T02:27:00.858Z,73.60
2019-04-28T02:31:11.473Z,73.60
2019-04-28T02:35:21.360Z,73.40
2019-04-28T02:39:31.372Z,73.60
2019-04-28T02:43:41.046Z,73.60
2019-04-28T02:47:52.340Z,73.60
2019-04-28T02:52:14.700Z,73.40
2019-04-28T02:56:23.503Z,73.70
2019-04-28T03:00:32.455Z,73.90
2019-04-28T03:04:41.508Z,74.00
2019-04-28T03:08:50.699Z,74.00
2019-04-28T03:13:01.206Z,74.10
2019-04-28T03:17:11.125Z,73.90
2019-04-28T03:21:21.477Z,74.20
2019-04-28T03:25:40.564Z,74.20
2019-04-28T03:29:53.828Z,74.30
2019-04-28T03:34:04.493Z,74.40
2019-04-28T03:38:13.670Z,74.40
2019-04-28T03:42:22.650Z,74.60
2019-04-28T03:46:33.150Z,74.60
2019-04-28T03:50:41.958Z,74.90
2019-04-28T03:54:51.502Z,75.10
2019-04-28T03:59:00.632Z,75.30
2019-04-28T04:03:11.000Z,75.60
2019-04-28T04:07:21.610Z,76.80
2019-04-28T04:11:41.027Z,75.90
2019-04-28T04:16:10.271Z,76.20
2019-04-28T04:20:23.774Z,76.10
2019-04-28T04:24:32.662Z,76.30
2019-04-28T04:28:42.041Z,76.60
2019-04-28T04:32:50.874Z,76.80
2019-04-28T04:37:00.760Z,76.80
2019-04-28T04:41:11.176Z,77.10
2019-04-28T04:45:20.350Z,77.30
2019-04-28T04:49:31.657Z,77.40
2019-04-28T04:53:40.727Z,77.40
2019-04-28T04:57:50.704Z,77.70
2019-04-28T05:02:19.224Z,77.80
2019-04-28T05:06:33.841Z,77.60
2019-04-28T05:10:42.675Z,77.80
2019-04-28T05:14:51.491Z,78.00
2019-04-28T05:19:00.771Z,77.40
2019-04-28T05:23:27.574Z,76.70
2019-04-28T05:27:36.368Z,76.60
2019-04-28T05:31:45.499Z,76.90
2019-04-28T05:35:59.259Z,76.80
2019-04-28T05:40:05.976Z,76.30
2019-04-28T05:44:15.136Z,76.20
2019-04-28T05:48:49.689Z,76.10
2019-04-28T05:53:23.508Z,75.90
2019-04-28T05:57:52.896Z,75.50
2019-04-28T06:02:14.170Z,75.40
2019-04-28T06:06:25.268Z,75.60
2019-04-28T06:10:34.203Z,75.40
2019-04-28T06:14:43.030Z,74.40
2019-04-28T06:18:51.835Z,73.40
2019-04-28T06:23:00.721Z,72.20
2019-04-28T06:27:09.503Z,70.90
2019-04-28T06:31:18.404Z,69.40
2019-04-28T06:35:27.279Z,68.30
2019-04-28T06:39:36.087Z,67.80
2019-04-28T06:43:44.896Z,67.20
2019-04-28T06:47:53.717Z,66.30
2019-04-28T06:52:02.550Z,65.70
2019-04-28T06:56:11.412Z,67.00
2019-04-28T07:00:20.306Z,66.90
2019-04-28T07:04:29.295Z,66.60
2019-04-28T07:08:38.329Z,65.60
2019-04-28T07:12:47.222Z,64.80
2019-04-28T07:16:56.036Z,64.40
2019-04-28T07:21:29.425Z,64.80
2019-04-28T07:25:38.359Z,65.60
2019-04-28T07:29:47.467Z,66.10
2019-04-28T07:33:56.613Z,66.60
2019-04-28T07:38:05.434Z,66.20
2019-04-28T07:42:14.248Z,66.20
2019-04-28T07:46:23.053Z,66.70
2019-04-28T07:50:32.297Z,68.20
2019-04-28T07:54:41.327Z,68.20
2019-04-28T07:58:50.130Z,67.10
2019-04-28T08:02:59.121Z,67.90
2019-04-28T08:07:08.032Z,67.10
2019-04-28T08:11:16.978Z,64.60
2019-04-28T08:15:25.997Z,62.70
2019-04-28T08:19:34.815Z,60.80
2019-04-28T08:23:47.260Z,61.50
2019-04-28T08:27:54.316Z,62.00
2019-04-28T08:32:11.336Z,62.00
2019-04-28T08:36:20.384Z,62.20
2019-04-28T08:40:29.303Z,61.60
2019-04-28T08:44:38.389Z,61.70
2019-04-28T08:48:47.324Z,61.40
2019-04-28T08:52:56.428Z,62.90
2019-04-28T08:57:05.450Z,62.50
2019-04-28T09:01:14.393Z,62.40
2019-04-28T09:05:23.395Z,61.90
2019-04-28T09:09:32.287Z,63.50
2019-04-28T09:13:43.822Z,62.90
2019-04-28T09:17:52.401Z,63.20
2019-04-28T09:22:01.224Z,63.00
2019-04-28T09:26:10.156Z,63.90
2019-04-28T09:30:21.784Z,62.80
2019-04-28T09:34:30.614Z,61.80
2019-04-28T09:38:39.603Z,62.20
2019-04-28T09:43:06.977Z,62.50
2019-04-28T09:47:16.278Z,60.60
2019-04-28T09:51:25.079Z,59.90
2019-04-28T09:55:33.956Z,59.50
2019-04-28T09:59:42.870Z,59.40
2019-04-28T10:03:51.873Z,58.60
2019-04-28T10:08:00.793Z,57.80
2019-04-28T10:12:09.614Z,57.20
2019-04-28T10:16:18.577Z,56.70
2019-04-28T10:20:27.711Z,56.40
2019-04-28T10:24:36.611Z,57.30
2019-04-28T10:28:45.926Z,56.80
2019-04-28T10:32:55.751Z,54.70
2019-04-28T10:37:04.808Z,55.70
2019-04-28T10:41:29.746Z,56.30
2019-04-28T10:45:46.932Z,55.40
2019-04-28T10:49:56.323Z,54.80
2019-04-28T10:54:05.239Z,54.80
2019-04-28T10:58:14.296Z,56.30
2019-04-28T11:02:23.104Z,56.70
2019-04-28T11:06:32.092Z,54.40
2019-04-28T11:10:41.134Z,53.90
2019-04-28T11:14:50.637Z,54.40
2019-04-28T11:18:59.647Z,54.80
2019-04-28T11:23:08.565Z,54.20
2019-04-28T11:27:17.504Z,55.50
2019-04-28T11:31:26.509Z,56.50
2019-04-28T11:35:35.615Z,55.60
2019-04-28T11:39:45.272Z,55.50
2019-04-28T11:43:54.122Z,54.10
2019-04-28T11:48:03.115Z,52.70
2019-04-28T11:52:12.163Z,52.50
2019-04-28T11:56:21.092Z,49.10
2019-04-28T12:00:32.608Z,50.30
2019-04-28T12:04:41.883Z,48.50
2019-04-28T12:08:52.347Z,48.80
2019-04-28T12:13:13.716Z,49.00
2019-04-28T12:17:50.686Z,49.30
2019-04-28T12:21:59.647Z,48.90
2019-04-28T12:26:08.527Z,48.60
2019-04-28T12:30:17.767Z,48.60
2019-04-28T12:34:26.844Z,49.00
2019-04-28T12:38:36.201Z,48.10
2019-04-28T12:42:45.147Z,49.30
2019-04-28T12:46:54.276Z,52.70
2019-04-28T12:51:03.467Z,54.50
2019-04-28T12:55:12.536Z,56.00
2019-04-28T12:59:26.714Z,56.30
2019-04-28T13:04:06.815Z,56.70
2019-04-28T13:08:15.680Z,55.60
2019-04-28T13:12:24.487Z,54.80
2019-04-28T13:16:33.363Z,54.20
2019-04-28T13:20:42.295Z,54.60
2019-04-28T13:24:51.113Z,54.90
2019-04-28T13:28:59.928Z,52.80
2019-04-28T13:33:08.723Z,52.50
2019-04-28T13:37:17.634Z,52.10
2019-04-28T13:41:26.451Z,49.90
2019-04-28T13:45:38.538Z,48.20
2019-04-28T13:49:50.153Z,45.70
2019-04-28T13:54:00.996Z,47.20
2019-04-28T13:58:10.003Z,48.40
2019-04-28T14:02:26.758Z,49.40
2019-04-28T14:06:39.853Z,51.50
2019-04-28T14:10:49.024Z,53.80
2019-04-28T14:14:57.876Z,53.90
2019-04-28T14:19:06.687Z,55.00
2019-04-28T14:23:15.504Z,56.70
2019-04-28T14:27:24.550Z,57.70
2019-04-28T14:31:33.536Z,58.60
2019-04-28T14:35:50.705Z,59.40
2019-04-28T14:40:07.584Z,60.10
2019-04-28T14:44:17.786Z,61.50
2019-04-28T14:48:26.843Z,62.30
2019-04-28T14:52:35.900Z,62.90
2019-04-28T14:56:44.847Z,63.30
2019-04-28T15:00:58.654Z,63.70
2019-04-28T15:05:32.336Z,64.00
2019-04-28T15:10:03.441Z,64.90
2019-04-28T15:14:12.689Z,66.90
2019-04-28T15:18:21.680Z,67.90
2019-04-28T15:22:30.567Z,67.00
2019-04-28T15:26:39.619Z,67.50
2019-04-28T15:30:48.405Z,68.00
2019-04-28T15:34:57.236Z,68.50
2019-04-28T15:39:09.187Z,70.00
2019-04-28T15:43:18.120Z,70.70
2019-04-28T15:47:27.279Z,70.70
2019-04-28T15:51:36.413Z,70.50
2019-04-28T15:56:03.172Z,70.40
2019-04-28T16:00:13.310Z,70.50
2019-04-28T16:04:22.120Z,70.10
2019-04-28T16:08:31.139Z,71.60
2019-04-28T16:12:40.121Z,71.70
2019-04-28T16:16:49.120Z,71.70
2019-04-28T16:20:58.047Z,72.00
2019-04-28T16:25:07.047Z,71.90
2019-04-28T16:29:16.133Z,71.90
2019-04-28T16:33:25.279Z,71.90
2019-04-28T16:37:39.098Z,70.70
2019-04-28T16:41:45.203Z,70.50
2019-04-28T16:45:54.439Z,70.70
2019-04-28T16:50:03.334Z,70.80
2019-04-28T16:54:12.254Z,70.30
2019-04-28T16:58:29.575Z,70.60
2019-04-28T17:02:45.318Z,70.80
2019-04-28T17:06:54.480Z,70.80
2019-04-28T17:11:03.694Z,68.10
2019-04-28T17:15:12.569Z,61.90
2019-04-28T17:19:21.504Z,57.00
2019-04-28T17:23:30.654Z,57.70
2019-04-28T17:27:39.505Z,57.40
2019-04-28T17:31:48.855Z,53.40
2019-04-28T17:35:57.750Z,49.20
2019-04-28T17:40:06.747Z,46.70
2019-04-28T17:44:17.339Z,44.10
2019-04-28T17:48:31.336Z,43.10
2019-04-28T17:52:40.353Z,42.60
2019-04-28T17:56:49.307Z,44.30
2019-04-28T18:01:23.350Z,46.00
2019-04-28T18:05:40.334Z,48.10
2019-04-28T18:09:49.209Z,49.10
2019-04-28T18:13:58.155Z,50.80
2019-04-28T18:18:30.471Z,54.20
2019-04-28T18:22:39.306Z,57.90
2019-04-28T18:26:48.211Z,60.50
2019-04-28T18:31:07.960Z,63.70
2019-04-28T18:35:44.756Z,67.60
2019-04-28T18:40:13.171Z,70.40
2019-04-28T18:44:22.662Z,72.00
2019-04-28T18:48:31.475Z,73.20
2019-04-28T18:52:40.476Z,74.70
2019-04-28T18:56:49.628Z,76.20
2019-04-28T19:01:09.239Z,77.20
2019-04-28T19:05:19.116Z,78.00
2019-04-28T19:09:50.096Z,79.20
2019-04-28T19:14:06.227Z,80.70
2019-04-28T19:18:21.518Z,82.20
2019-04-28T19:22:32.091Z,83.50
2019-04-28T19:26:40.975Z,85.00
2019-04-28T19:30:51.201Z,84.80
2019-04-28T19:35:01.339Z,85.50
2019-04-28T19:39:10.223Z,86.20
2019-04-28T19:43:19.298Z,86.50
2019-04-28T19:47:28.111Z,86.60
2019-04-28T19:51:36.918Z,87.30
2019-04-28T19:55:52.461Z,87.70
2019-04-28T20:00:13.006Z,87.40
2019-04-28T20:04:21.848Z,87.40
2019-04-28T20:08:30.912Z,87.80
2019-04-28T20:12:40.070Z,87.30
2019-04-28T20:16:48.907Z,88.00
2019-04-28T20:20:58.056Z,88.00
2019-04-28T20:25:07.044Z,88.60
2019-04-28T20:29:15.874Z,89.10
2019-04-28T20:33:24.635Z,89.50
2019-04-28T20:37:40.348Z,89.80
2019-04-28T20:41:49.255Z,88.80
2019-04-28T20:45:58.128Z,88.30
2019-04-28T20:50:07.301Z,87.90
2019-04-28T20:54:16.567Z,87.90
2019-04-28T20:58:25.420Z,87.90
2019-04-28T21:02:34.242Z,87.20
2019-04-28T21:06:43.485Z,87.10
2019-04-28T21:10:52.347Z,87.20
2019-04-28T21:15:01.203Z,86.90
2019-04-28T21:19:10.124Z,87.10
2019-04-28T21:23:18.928Z,87.20
2019-04-28T21:27:27.765Z,87.50
2019-04-28T21:31:36.718Z,87.60
2019-04-28T21:35:45.595Z,87.30
2019-04-28T21:39:54.775Z,87.30
2019-04-28T21:44:20.431Z,87.10
2019-04-28T21:48:47.099Z,87.00
2019-04-28T21:52:55.949Z,87.00
2019-04-28T21:57:05.081Z,88.30
2019-04-28T22:01:18.338Z,88.70
2019-04-28T22:05:30.423Z,88.00
2019-04-28T22:09:37.775Z,87.80
2019-04-28T22:13:46.738Z,87.30
2019-04-28T22:17:55.891Z,86.80
2019-04-28T22:22:04.863Z,86.60
2019-04-28T22:26:32.993Z,86.40
2019-04-28T22:30:42.036Z,86.30
2019-04-28T22:34:50.908Z,86.10
2019-04-28T22:38:59.914Z,85.70
2019-04-28T22:43:08.834Z,85.90
2019-04-28T22:47:17.871Z,85.90
2019-04-28T22:51:26.903Z,85.90
2019-04-28T22:55:40.295Z,86.10
2019-04-28T22:59:49.163Z,85.90
2019-04-28T23:04:05.203Z,86.00
2019-04-28T23:08:14.095Z,86.10
2019-04-28T23:12:23.052Z,85.80
2019-04-28T23:16:32.243Z,87.20
2019-04-28T23:20:42.965Z,86.30
2019-04-28T23:24:52.040Z,86.20
2019-04-28T23:29:01.175Z,86.40
2019-04-28T23:33:10.120Z,86.60
2019-04-28T23:37:19.250Z,86.70
2019-04-28T23:41:34.250Z,87.00
2019-04-28T23:45:43.184Z,87.10
2019-04-28T23:49:52.040Z,87.20
2019-04-28T23:54:05.635Z,87.00
2019-04-28T23:58:14.599Z,87.20
